createdAt,value
2022-09-05T00:01:46.254Z,101008.00
2022-09-05T00:04:36.962Z,101003.06
2022-09-05T00:07:59.596Z,101006.69
2022-09-05T00:10:36.177Z,101012.00
2022-09-05T00:13:12.645Z,101005.84
2022-09-05T00:15:51.878Z,101008.69
2022-09-05T00:22:09.541Z,101009.50
2022-09-05T00:24:32.398Z,101012.66
2022-09-05T00:25:46.622Z,101006.22
2022-09-05T00:28:48.586Z,100996.94
2022-09-05T00:31:57.231Z,100997.41
2022-09-05T00:34:56.229Z,101005.88
2022-09-05T00:37:32.117Z,100999.91
2022-09-05T00:40:20.127Z,100994.56
2022-09-05T00:42:56.744Z,100992.25
2022-09-05T00:45:33.678Z,100991.25
2022-09-05T00:48:23.362Z,100987.81
2022-09-05T00:51:15.102Z,100999.38
2022-09-05T00:53:54.148Z,100994.56
2022-09-05T00:56:53.618Z,100996.59
2022-09-05T00:59:58.704Z,100989.31
2022-09-05T01:02:57.744Z,100994.56
2022-09-05T01:05:53.182Z,100987.47
2022-09-05T01:09:09.985Z,100989.25
2022-09-05T01:12:09.923Z,100982.28
2022-09-05T01:14:55.620Z,100994.81
2022-09-05T01:17:50.457Z,100987.53
2022-09-05T01:20:55.830Z,100987.06
2022-09-05T01:24:15.307Z,100995.13
2022-09-05T01:27:33.834Z,100999.09
2022-09-05T01:30:20.307Z,100996.78
2022-09-05T01:32:56.839Z,100992.94
2022-09-05T01:36:06.931Z,100986.31
2022-09-05T01:39:49.214Z,100983.00
2022-09-05T01:42:25.919Z,100977.72
2022-09-05T01:45:29.575Z,100971.91
2022-09-05T01:48:21.457Z,100966.47
2022-09-05T01:51:36.472Z,100968.91
2022-09-05T01:54:38.162Z,100968.91
2022-09-05T01:57:34.171Z,100977.50
2022-09-05T02:00:22.114Z,100967.72
2022-09-05T02:03:20.457Z,100973.31
2022-09-05T02:06:05.753Z,100970.50
2022-09-05T02:09:10.952Z,100973.81
2022-09-05T02:12:02.116Z,100974.16
2022-09-05T02:14:42.939Z,100971.53
2022-09-05T02:17:50.784Z,100973.63
2022-09-05T02:20:35.309Z,100983.91
2022-09-05T02:23:36.744Z,100981.25
2022-09-05T02:26:23.675Z,100975.78
2022-09-05T02:29:05.569Z,100982.41
2022-09-05T02:31:52.875Z,100978.75
2022-09-05T02:34:48.626Z,100980.97
2022-09-05T02:38:43.917Z,100982.28
2022-09-05T02:45:12.048Z,100974.66
2022-09-05T02:45:19.794Z,100975.13
2022-09-05T02:47:22.519Z,100969.53
2022-09-05T02:54:44.896Z,100974.44
2022-09-05T02:57:38.561Z,100974.91
2022-09-05T02:57:41.754Z,100973.31
2022-09-05T02:59:54.500Z,100966.94
2022-09-05T03:03:01.353Z,100975.63
2022-09-05T03:05:37.499Z,100972.81
2022-09-05T03:08:22.279Z,100971.59
2022-09-05T03:11:53.875Z,100967.53
2022-09-05T03:15:03.758Z,100968.13
2022-09-05T03:18:27.333Z,100976.84
2022-09-05T03:21:37.982Z,100980.78
2022-09-05T03:24:58.061Z,100980.91
2022-09-05T03:27:46.565Z,100974.81
2022-09-05T03:30:21.306Z,100976.16
2022-09-05T03:32:49.101Z,100971.63
2022-09-05T03:36:19.864Z,100970.03
2022-09-05T03:39:23.435Z,100969.22
2022-09-05T03:42:14.752Z,100983.44
2022-09-05T03:45:36.376Z,100979.44
2022-09-05T03:48:35.704Z,100989.63
2022-09-05T03:57:19.856Z,100990.88
2022-09-05T03:57:23.099Z,100989.25
2022-09-05T03:58:16.726Z,100980.66
2022-09-05T04:03:32.951Z,100984.97
2022-09-05T04:08:15.724Z,100981.34
2022-09-05T04:08:23.966Z,100974.28
2022-09-05T04:10:55.538Z,100989.00
2022-09-05T04:13:31.626Z,100978.44
2022-09-05T04:16:54.789Z,100984.53
2022-09-05T04:19:28.911Z,100982.50
2022-09-05T04:22:25.035Z,100979.19
2022-09-05T04:25:44.389Z,100989.53
2022-09-05T04:28:44.627Z,100994.97
2022-09-05T04:32:18.038Z,100996.47
2022-09-05T04:35:10.376Z,100988.59
2022-09-05T04:37:55.942Z,100996.59
2022-09-05T04:41:04.455Z,100996.91
2022-09-05T04:43:51.798Z,100999.53
2022-09-05T04:46:48.829Z,100996.13
2022-09-05T04:49:31.565Z,101002.06
2022-09-05T04:52:36.345Z,101006.56
2022-09-05T04:58:01.303Z,101010.13
2022-09-05T05:05:58.759Z,101010.88
2022-09-05T05:06:11.537Z,101014.63
2022-09-05T05:06:46.742Z,101017.94
2022-09-05T05:09:26.279Z,101016.41
2022-09-05T05:18:02.286Z,101018.53
2022-09-05T05:18:04.179Z,101024.84
2022-09-05T05:18:36.529Z,101028.59
2022-09-05T05:21:09.228Z,101035.38
2022-09-05T05:23:41.206Z,101037.50
2022-09-05T05:26:22.229Z,101030.19
2022-09-05T05:29:27.459Z,101034.16
2022-09-05T05:32:00.377Z,101038.53
2022-09-05T05:34:42.112Z,101033.13
2022-09-05T05:37:31.753Z,101043.44
2022-09-05T05:40:41.321Z,101049.84
2022-09-05T05:43:27.555Z,101045.25
2022-09-05T05:45:59.738Z,101058.38
2022-09-05T05:48:34.917Z,101049.25
2022-09-05T05:52:01.434Z,101055.66
2022-09-05T05:54:50.678Z,101059.44
2022-09-05T05:58:15.841Z,101059.69
2022-09-05T06:01:31.558Z,101054.84
2022-09-05T06:04:59.643Z,101061.53
2022-09-05T06:10:31.769Z,101057.63
2022-09-05T06:14:49.474Z,101054.41
2022-09-05T06:15:02.191Z,101064.31
2022-09-05T06:17:32.023Z,101068.69
2022-09-05T06:22:07.295Z,101061.72
2022-09-05T06:24:02.839Z,101067.72
2022-09-05T06:26:51.171Z,101054.53
2022-09-05T06:29:41.048Z,101058.25
2022-09-05T06:32:27.308Z,101062.91
2022-09-05T06:35:26.866Z,101076.72
2022-09-05T06:38:13.980Z,101067.47
2022-09-05T06:41:20.624Z,101071.00
2022-09-05T06:44:32.398Z,101072.91
2022-09-05T06:47:33.656Z,101074.19
2022-09-05T06:50:21.724Z,101074.97
2022-09-05T06:53:38.240Z,101081.38
2022-09-05T06:56:26.021Z,101083.50
2022-09-05T06:59:21.633Z,101079.59
2022-09-05T07:02:14.924Z,101087.88
2022-09-05T07:05:37.154Z,101078.97
2022-09-05T07:08:35.308Z,101098.81
2022-09-05T07:11:24.150Z,101099.81
2022-09-05T07:13:57.594Z,101101.19
2022-09-05T07:16:47.203Z,101098.72
2022-09-05T07:19:43.325Z,101101.19
2022-09-05T07:22:47.739Z,101094.91
2022-09-05T07:25:20.329Z,101093.94
2022-09-05T07:28:26.352Z,101095.41
2022-09-05T07:30:47.531Z,101097.63
2022-09-05T07:33:21.504Z,101100.16
2022-09-05T07:35:51.549Z,101095.66
2022-09-05T07:38:32.583Z,101095.88
2022-09-05T07:41:32.404Z,101098.00
2022-09-05T07:44:31.000Z,101105.28
2022-09-05T07:47:15.758Z,101095.31
2022-09-05T07:49:45.746Z,101097.19
2022-09-05T07:57:09.635Z,101100.44
2022-09-05T07:57:10.576Z,101100.97
2022-09-05T07:58:43.928Z,101098.41
2022-09-05T08:01:13.387Z,101098.53
2022-09-05T08:03:43.947Z,101107.88
2022-09-05T08:07:25.654Z,101099.00
2022-09-05T08:10:06.350Z,101096.03
2022-09-05T08:12:51.934Z,101098.97
2022-09-05T08:16:04.295Z,101107.00
2022-09-05T08:18:54.663Z,101092.94
2022-09-05T08:21:42.226Z,101100.50
2022-09-05T08:24:37.847Z,101098.25
2022-09-05T08:27:43.023Z,101089.72
2022-09-05T08:30:26.203Z,101097.16
2022-09-05T08:33:21.756Z,101101.63
2022-09-05T08:36:00.743Z,101092.88
2022-09-05T08:38:37.375Z,101096.81
2022-09-05T08:41:49.284Z,101091.22
2022-09-05T08:46:40.131Z,101085.72
2022-09-05T08:47:31.974Z,101089.44
2022-09-05T08:50:39.360Z,101087.75
2022-09-05T08:53:49.204Z,101081.91
2022-09-05T08:56:57.383Z,101070.53
2022-09-05T08:59:33.335Z,101079.03
2022-09-05T09:02:49.266Z,101078.13
2022-09-05T09:05:21.379Z,101081.34
2022-09-05T09:08:27.058Z,101076.16
2022-09-05T09:11:06.477Z,101080.66
2022-09-05T09:13:52.145Z,101084.13
2022-09-05T09:16:39.636Z,101082.66
2022-09-05T09:19:29.332Z,101075.91
2022-09-05T09:22:18.942Z,101073.78
2022-09-05T09:25:21.160Z,101056.47
2022-09-05T09:28:49.645Z,101054.00
2022-09-05T09:31:22.016Z,101043.84
2022-09-05T09:33:54.776Z,101048.16
2022-09-05T09:36:52.466Z,101055.59
2022-09-05T09:40:03.295Z,101046.88
2022-09-05T09:43:06.930Z,101040.75
2022-09-05T09:46:02.222Z,101026.56
2022-09-05T09:49:22.517Z,101024.09
2022-09-05T09:52:20.557Z,101015.50
2022-09-05T09:55:08.055Z,101017.13
2022-09-05T09:58:29.426Z,101023.81
2022-09-05T10:01:36.418Z,101021.81
2022-09-05T10:10:40.438Z,101011.38
2022-09-05T10:10:55.283Z,101008.13
2022-09-05T10:11:44.087Z,101002.16
2022-09-05T10:14:50.095Z,101007.66
2022-09-05T10:17:57.701Z,101012.88
2022-09-05T10:20:39.308Z,101017.28
2022-09-05T10:23:27.842Z,101002.13
2022-09-05T10:26:27.614Z,101001.94
2022-09-05T10:29:37.200Z,100974.38
2022-09-05T10:34:16.067Z,100969.13
2022-09-05T10:35:17.538Z,100970.53
2022-09-05T10:38:04.376Z,100963.03
2022-09-05T10:41:05.136Z,100958.84
2022-09-05T10:43:33.272Z,100959.59
2022-09-05T10:46:49.078Z,100948.13
2022-09-05T10:49:12.478Z,100934.72
2022-09-05T10:52:18.646Z,100936.28
2022-09-05T10:55:19.882Z,100942.38
2022-09-05T10:58:25.200Z,100941.56
2022-09-05T11:02:22.382Z,100934.97
2022-09-05T11:04:49.791Z,100929.16
2022-09-05T11:07:40.146Z,100928.50
2022-09-05T11:11:03.676Z,100918.59
2022-09-05T11:13:47.825Z,100925.72
2022-09-05T11:16:50.771Z,100909.78
2022-09-05T11:19:45.295Z,100910.63
2022-09-05T11:22:23.833Z,100901.97
2022-09-05T11:24:57.362Z,100911.31
2022-09-05T11:27:29.978Z,100898.84
2022-09-05T11:30:08.817Z,100899.56
2022-09-05T11:39:48.753Z,100901.66
2022-09-05T11:40:07.647Z,100899.56
2022-09-05T11:40:09.799Z,100908.81
2022-09-05T11:43:13.665Z,100899.72
2022-09-05T11:46:30.066Z,100899.28
2022-09-05T11:49:37.497Z,100905.16
2022-09-05T11:52:21.506Z,100903.03
2022-09-05T11:55:20.850Z,100897.50
2022-09-05T11:58:39.885Z,100898.78
2022-09-05T12:01:43.203Z,100896.13
2022-09-05T12:04:20.040Z,100884.38
2022-09-05T12:07:30.589Z,100881.44
2022-09-05T12:10:58.695Z,100881.09
2022-09-05T12:13:47.086Z,100881.09
2022-09-05T12:16:44.968Z,100874.53
2022-09-05T12:19:29.822Z,100879.56
2022-09-05T12:22:18.702Z,100872.56
2022-09-05T12:25:27.126Z,100866.16
2022-09-05T12:29:29.235Z,100872.19
2022-09-05T12:33:47.971Z,100865.56
2022-09-05T12:36:09.705Z,100867.75
2022-09-05T12:40:38.407Z,100864.56
2022-09-05T12:41:35.580Z,100857.00
2022-09-05T12:44:41.945Z,100853.88
2022-09-05T12:47:18.766Z,100854.91
2022-09-05T12:50:54.592Z,100849.69
2022-09-05T12:53:24.857Z,100848.75
2022-09-05T12:56:38.729Z,100846.88
2022-09-05T13:03:04.570Z,100839.38
2022-09-05T13:03:12.331Z,100840.19
2022-09-05T13:05:01.106Z,100838.44
2022-09-05T13:07:42.869Z,100841.38
2022-09-05T13:14:33.468Z,100834.31
2022-09-05T13:14:53.960Z,100844.59
2022-09-05T13:16:46.965Z,100840.69
2022-09-05T13:19:33.590Z,100839.59
2022-09-05T13:22:03.283Z,100831.69
2022-09-05T13:24:38.525Z,100832.28
2022-09-05T13:27:25.218Z,100830.34
2022-09-05T13:31:12.370Z,100832.13
2022-09-05T13:37:58.389Z,100827.28
2022-09-05T13:38:12.567Z,100826.88
2022-09-05T13:39:16.333Z,100823.41
2022-09-05T13:41:48.754Z,100818.59
2022-09-05T13:44:26.854Z,100821.88
2022-09-05T13:47:29.692Z,100826.69
2022-09-05T13:50:25.630Z,100814.81
2022-09-05T13:53:15.673Z,100817.13
2022-09-05T13:56:23.967Z,100817.97
2022-09-05T13:59:16.124Z,100814.34
2022-09-05T14:02:25.708Z,100811.53
2022-09-05T14:05:33.176Z,100807.53
2022-09-05T14:08:37.191Z,100796.94
2022-09-05T14:12:08.060Z,100793.84
2022-09-05T14:18:21.197Z,100791.66
2022-09-05T14:21:16.692Z,100789.13
2022-09-05T14:23:56.040Z,100785.41
2022-09-05T14:26:42.526Z,100775.50
2022-09-05T14:29:38.970Z,100777.63
2022-09-05T14:37:38.656Z,100777.81
2022-09-05T14:37:38.869Z,100773.50
2022-09-05T14:38:44.087Z,100765.56
2022-09-05T14:41:29.335Z,100769.41
2022-09-05T14:44:37.899Z,100769.41
2022-09-05T14:47:35.398Z,100768.47
2022-09-05T14:50:29.244Z,100767.22
2022-09-05T14:58:29.820Z,100760.63
2022-09-05T15:02:44.635Z,100765.22
2022-09-05T15:02:53.944Z,100762.97
2022-09-05T15:05:28.942Z,100761.06
2022-09-05T15:11:48.626Z,100756.75
2022-09-05T15:12:21.670Z,100758.22
2022-09-05T15:14:11.966Z,100743.69
2022-09-05T15:16:43.649Z,100745.66
2022-09-05T15:20:05.216Z,100740.63
2022-09-05T15:22:41.738Z,100736.97
2022-09-05T15:25:21.417Z,100727.47
2022-09-05T15:27:49.552Z,100722.94
2022-09-05T15:30:35.411Z,100725.31
2022-09-05T15:33:25.777Z,100722.59
2022-09-05T15:35:53.836Z,100718.53
2022-09-05T15:38:55.890Z,100703.84
2022-09-05T15:41:29.643Z,100710.78
2022-09-05T15:44:11.210Z,100701.38
2022-09-05T15:46:57.100Z,100704.44
2022-09-05T15:49:44.758Z,100707.94
2022-09-05T15:52:53.469Z,100702.66
2022-09-05T15:55:26.477Z,100707.19
2022-09-05T15:58:03.072Z,100693.09
2022-09-05T16:00:50.742Z,100697.28
2022-09-05T16:07:28.035Z,100695.31
2022-09-05T16:10:34.099Z,100690.63
2022-09-05T16:10:45.943Z,100686.56
2022-09-05T16:12:16.204Z,100686.63
2022-09-05T16:17:31.314Z,100687.63
2022-09-05T16:23:12.081Z,100688.88
2022-09-05T16:23:32.022Z,100689.31
2022-09-05T16:23:42.875Z,100686.09
2022-09-05T16:26:25.600Z,100686.09
2022-09-05T16:29:27.046Z,100674.75
2022-09-05T16:32:01.953Z,100673.28
2022-09-05T16:35:07.685Z,100667.78
2022-09-05T16:37:47.179Z,100673.97
2022-09-05T16:40:16.995Z,100676.88
2022-09-05T16:43:00.206Z,100672.38
2022-09-05T16:46:07.551Z,100669.09
2022-09-05T16:49:42.177Z,100670.75
2022-09-05T16:52:17.264Z,100670.53
2022-09-05T16:55:11.847Z,100666.47
2022-09-05T16:57:54.464Z,100660.75
2022-09-05T17:00:24.707Z,100657.06
2022-09-05T17:03:28.720Z,100659.69
2022-09-05T17:06:26.269Z,100657.00
2022-09-05T17:09:03.262Z,100654.16
2022-09-05T17:11:52.396Z,100652.19
2022-09-05T17:14:34.994Z,100651.69
2022-09-05T17:17:55.255Z,100651.78
2022-09-05T17:20:14.806Z,100651.34
2022-09-05T17:24:49.283Z,100649.91
2022-09-05T17:29:31.933Z,100660.03
2022-09-05T17:29:50.034Z,100653.72
2022-09-05T17:32:01.663Z,100643.69
2022-09-05T17:34:48.162Z,100650.44
2022-09-05T17:37:46.047Z,100648.72
2022-09-05T17:40:36.417Z,100644.72
2022-09-05T17:43:28.553Z,100643.25
2022-09-05T17:46:23.051Z,100646.78
2022-09-05T17:49:11.424Z,100648.34
2022-09-05T17:51:42.060Z,100647.94
2022-09-05T17:54:30.914Z,100653.69
2022-09-05T17:57:26.608Z,100648.63
2022-09-05T17:59:55.376Z,100645.59
2022-09-05T18:02:22.322Z,100650.94
2022-09-05T18:04:50.151Z,100651.56
2022-09-05T18:07:23.057Z,100650.72
2022-09-05T18:13:12.658Z,100660.09
2022-09-05T18:15:38.136Z,100657.22
2022-09-05T18:18:29.953Z,100653.56
2022-09-05T18:24:04.667Z,100662.75
2022-09-05T18:26:42.728Z,100658.97
2022-09-05T18:29:37.192Z,100662.47
2022-09-05T18:32:12.223Z,100670.53
2022-09-05T18:34:41.253Z,100672.97
2022-09-05T18:37:39.085Z,100682.25
2022-09-05T18:40:16.600Z,100683.28
2022-09-05T18:43:33.378Z,100689.25
2022-09-05T18:46:13.778Z,100695.19
2022-09-05T18:49:35.356Z,100698.72
2022-09-05T18:52:04.177Z,100695.63
2022-09-05T18:54:35.107Z,100694.44
2022-09-05T18:57:26.706Z,100698.50
2022-09-05T19:00:14.578Z,100688.63
2022-09-05T19:02:58.826Z,100683.69
2022-09-05T19:05:45.573Z,100672.63
2022-09-05T19:08:36.087Z,100681.25
2022-09-05T19:11:27.920Z,100677.56
2022-09-05T19:14:14.270Z,100676.34
2022-09-05T19:16:48.117Z,100674.06
2022-09-05T19:19:24.574Z,100671.63
2022-09-05T19:22:39.456Z,100669.56
2022-09-05T19:24:46.195Z,100667.72
2022-09-05T19:29:51.597Z,100668.94
2022-09-05T19:36:52.191Z,100664.84
2022-09-05T19:36:58.277Z,100669.34
2022-09-05T19:37:12.861Z,100669.97
2022-09-05T19:39:49.410Z,100668.28
2022-09-05T19:47:34.401Z,100661.09
2022-09-05T19:47:45.337Z,100666.84
2022-09-05T19:48:02.442Z,100667.69
2022-09-05T19:50:30.913Z,100659.06
2022-09-05T19:53:07.216Z,100664.78
2022-09-05T19:55:38.588Z,100659.88
2022-09-05T19:58:19.833Z,100656.16
2022-09-05T20:01:01.543Z,100657.19
2022-09-05T20:03:38.586Z,100648.38
2022-09-05T20:06:29.331Z,100648.13
2022-09-05T20:09:27.566Z,100648.75
2022-09-05T20:11:58.547Z,100641.78
2022-09-05T20:14:30.963Z,100641.75
2022-09-05T20:17:18.550Z,100639.09
2022-09-05T20:19:45.843Z,100637.66
2022-09-05T20:22:49.683Z,100644.63
2022-09-05T20:25:35.848Z,100648.75
2022-09-05T20:28:12.042Z,100647.28
2022-09-05T20:30:49.358Z,100650.16
2022-09-05T20:33:25.080Z,100656.25
2022-09-05T20:41:42.024Z,100653.75
2022-09-05T20:43:14.982Z,100652.09
2022-09-05T20:43:24.163Z,100655.59
2022-09-05T20:44:51.767Z,100644.91
2022-09-05T20:54:06.427Z,100656.63
2022-09-05T20:54:13.199Z,100649.75
2022-09-05T20:54:28.653Z,100648.97
2022-09-05T20:56:32.398Z,100649.94
2022-09-05T20:59:00.871Z,100655.84
2022-09-05T21:01:32.274Z,100657.91
2022-09-05T21:04:05.253Z,100659.97
2022-09-05T21:06:40.427Z,100668.16
2022-09-05T21:09:24.675Z,100667.31
2022-09-05T21:11:55.674Z,100665.06
2022-09-05T21:14:26.018Z,100669.56
2022-09-05T21:17:00.759Z,100665.63
2022-09-05T21:19:33.709Z,100670.13
2022-09-05T21:22:18.574Z,100662.84
2022-09-05T21:24:47.152Z,100662.78
2022-09-05T21:27:24.572Z,100665.19
2022-09-05T21:29:58.925Z,100656.97
2022-09-05T21:32:38.194Z,100651.50
2022-09-05T21:35:33.638Z,100651.06
2022-09-05T21:37:58.600Z,100652.94
2022-09-05T21:40:25.787Z,100641.91
2022-09-05T21:47:38.636Z,100645.38
2022-09-05T21:47:44.091Z,100635.91
2022-09-05T21:48:28.337Z,100645.75
2022-09-05T21:51:05.373Z,100644.91
2022-09-05T21:59:17.398Z,100642.44
2022-09-05T21:59:22.613Z,100646.69
2022-09-05T21:59:46.038Z,100647.44
2022-09-05T22:02:17.254Z,100647.56
2022-09-05T22:04:44.698Z,100640.44
2022-09-05T22:07:24.262Z,100641.41
2022-09-05T22:10:04.715Z,100635.66
2022-09-05T22:12:35.725Z,100632.44
2022-09-05T22:15:27.564Z,100626.69
2022-09-05T22:17:57.040Z,100625.88
2022-09-05T22:20:43.388Z,100622.31
2022-09-05T22:23:11.287Z,100613.34
2022-09-05T22:25:39.560Z,100619.00
2022-09-05T22:28:27.378Z,100623.84
2022-09-05T22:31:07.904Z,100626.59
2022-09-05T22:33:35.975Z,100627.47
2022-09-05T22:36:03.485Z,100622.34
2022-09-05T22:38:30.431Z,100629.56
2022-09-05T22:40:57.585Z,100626.41
2022-09-05T22:43:25.615Z,100628.69
2022-09-05T22:45:56.332Z,100619.81
2022-09-05T22:48:24.005Z,100623.94
2022-09-05T22:50:51.027Z,100628.13
2022-09-05T22:53:18.091Z,100620.31
2022-09-05T22:55:45.014Z,100607.81
2022-09-05T22:58:14.165Z,100617.41
2022-09-05T23:00:41.662Z,100608.22
2022-09-05T23:03:08.632Z,100606.34
2022-09-05T23:05:35.494Z,100613.75
2022-09-05T23:08:04.055Z,100614.47
2022-09-05T23:10:31.990Z,100610.00
2022-09-05T23:12:59.192Z,100615.88
2022-09-05T23:15:26.123Z,100608.88
2022-09-05T23:17:55.330Z,100614.13
2022-09-05T23:20:23.707Z,100609.50
2022-09-05T23:22:50.538Z,100613.69
2022-09-05T23:25:18.560Z,100614.91
2022-09-05T23:27:45.523Z,100619.81
2022-09-05T23:30:12.997Z,100626.16
2022-09-05T23:32:51.267Z,100620.91
2022-09-05T23:35:19.280Z,100624.97
2022-09-05T23:37:47.989Z,100626.03
2022-09-05T23:40:17.812Z,100620.59
2022-09-05T23:43:10.834Z,100618.13
2022-09-05T23:45:37.671Z,100623.50
2022-09-05T23:48:04.617Z,100621.88
2022-09-05T23:50:31.516Z,100614.16
2022-09-05T23:53:04.471Z,100612.44
2022-09-05T23:55:32.752Z,100617.66
2022-09-05T23:57:59.760Z,100611.41
